sensor_id;sensor_type;location;lat;lon;timestamp;temperature;humidity
7317;DHT22;3699;51.462;6.696;2023-02-28T00:02:25;2.10;99.90
7317;DHT22;3699;51.462;6.696;2023-02-28T00:04:51;2.10;99.90
7317;DHT22;3699;51.462;6.696;2023-02-28T00:07:27;4.20;99.90
7317;DHT22;3699;51.462;6.696;2023-02-28T00:09:54;2.10;99.90
7317;DHT22;3699;51.462;6.696;2023-02-28T00:12:21;2.00;99.90
7317;DHT22;3699;51.462;6.696;2023-02-28T00:14:48;2.00;99.90
7317;DHT22;3699;51.462;6.696;2023-02-28T00:17:15;2.00;99.90
7317;DHT22;3699;51.462;6.696;2023-02-28T00:19:43;1.80;99.90
7317;DHT22;3699;51.462;6.696;2023-02-28T00:22:10;2.00;99.90
7317;DHT22;3699;51.462;6.696;2023-02-28T00:24:38;1.90;99.90
7317;DHT22;3699;51.462;6.696;2023-02-28T00:27:04;1.70;99.90
7317;DHT22;3699;51.462;6.696;2023-02-28T00:29:31;1.70;99.90
7317;DHT22;3699;51.462;6.696;2023-02-28T00:31:58;1.70;99.90
7317;DHT22;3699;51.462;6.696;2023-02-28T00:34:25;1.60;99.90
7317;DHT22;3699;51.462;6.696;2023-02-28T00:36:51;1.60;99.90
7317;DHT22;3699;51.462;6.696;2023-02-28T00:39:18;1.50;99.90
7317;DHT22;3699;51.462;6.696;2023-02-28T00:41:46;1.50;99.90
7317;DHT22;3699;51.462;6.696;2023-02-28T00:44:13;1.60;99.90
7317;DHT22;3699;51.462;6.696;2023-02-28T00:46:39;1.50;99.90
7317;DHT22;3699;51.462;6.696;2023-02-28T00:49:06;1.30;99.90
7317;DHT22;3699;51.462;6.696;2023-02-28T00:51:33;1.40;99.90
7317;DHT22;3699;51.462;6.696;2023-02-28T00:53:59;1.40;99.90
7317;DHT22;3699;51.462;6.696;2023-02-28T00:56:26;1.40;99.90
7317;DHT22;3699;51.462;6.696;2023-02-28T00:58:54;1.40;99.90
7317;DHT22;3699;51.462;6.696;2023-02-28T01:01:21;1.40;99.90
7317;DHT22;3699;51.462;6.696;2023-02-28T01:03:48;1.40;99.90
7317;DHT22;3699;51.462;6.696;2023-02-28T01:06:14;1.40;99.90
7317;DHT22;3699;51.462;6.696;2023-02-28T01:08:41;1.40;99.90
7317;DHT22;3699;51.462;6.696;2023-02-28T01:11:09;1.40;99.90
7317;DHT22;3699;51.462;6.696;2023-02-28T01:13:37;1.40;99.90
7317;DHT22;3699;51.462;6.696;2023-02-28T01:16:06;1.40;99.90
7317;DHT22;3699;51.462;6.696;2023-02-28T01:18:32;1.50;99.90
7317;DHT22;3699;51.462;6.696;2023-02-28T01:21:03;1.40;99.90
7317;DHT22;3699;51.462;6.696;2023-02-28T01:23:30;1.50;99.90
7317;DHT22;3699;51.462;6.696;2023-02-28T01:25:57;1.40;99.90
7317;DHT22;3699;51.462;6.696;2023-02-28T01:28:24;1.40;99.90
7317;DHT22;3699;51.462;6.696;2023-02-28T01:30:51;1.40;99.90
7317;DHT22;3699;51.462;6.696;2023-02-28T01:33:19;1.30;99.90
7317;DHT22;3699;51.462;6.696;2023-02-28T01:35:46;1.40;99.90
7317;DHT22;3699;51.462;6.696;2023-02-28T01:38:12;1.50;99.90
7317;DHT22;3699;51.462;6.696;2023-02-28T01:40:39;1.30;99.90
7317;DHT22;3699;51.462;6.696;2023-02-28T01:43:20;1.30;99.90
7317;DHT22;3699;51.462;6.696;2023-02-28T01:45:47;1.20;99.90
7317;DHT22;3699;51.462;6.696;2023-02-28T01:48:14;1.30;99.90
7317;DHT22;3699;51.462;6.696;2023-02-28T01:50:45;1.20;99.90
7317;DHT22;3699;51.462;6.696;2023-02-28T01:53:15;1.20;99.90
7317;DHT22;3699;51.462;6.696;2023-02-28T01:55:48;1.20;99.90
7317;DHT22;3699;51.462;6.696;2023-02-28T01:58:17;1.10;99.90
7317;DHT22;3699;51.462;6.696;2023-02-28T02:00:44;1.00;99.90
7317;DHT22;3699;51.462;6.696;2023-02-28T02:03:13;1.00;99.90
7317;DHT22;3699;51.462;6.696;2023-02-28T02:05:42;0.80;99.90
7317;DHT22;3699;51.462;6.696;2023-02-28T02:08:17;0.80;99.90
7317;DHT22;3699;51.462;6.696;2023-02-28T02:10:45;0.90;99.90
7317;DHT22;3699;51.462;6.696;2023-02-28T02:13:28;0.80;99.90
7317;DHT22;3699;51.462;6.696;2023-02-28T02:16:03;0.70;99.90
7317;DHT22;3699;51.462;6.696;2023-02-28T02:18:36;0.60;99.90
7317;DHT22;3699;51.462;6.696;2023-02-28T02:21:47;0.70;99.90
7317;DHT22;3699;51.462;6.696;2023-02-28T02:27:54;0.70;99.90
7317;DHT22;3699;51.462;6.696;2023-02-28T02:30:50;0.70;99.90
7317;DHT22;3699;51.462;6.696;2023-02-28T02:36:23;0.60;99.90
7317;DHT22;3699;51.462;6.696;2023-02-28T02:38:58;0.60;99.90
7317;DHT22;3699;51.462;6.696;2023-02-28T02:41:33;0.50;99.90
7317;DHT22;3699;51.462;6.696;2023-02-28T02:44:04;0.60;99.90
7317;DHT22;3699;51.462;6.696;2023-02-28T02:46:34;0.60;99.90
7317;DHT22;3699;51.462;6.696;2023-02-28T02:49:07;0.40;99.90
7317;DHT22;3699;51.462;6.696;2023-02-28T02:51:36;0.50;99.90
7317;DHT22;3699;51.462;6.696;2023-02-28T02:54:08;0.40;99.90
7317;DHT22;3699;51.462;6.696;2023-02-28T02:56:36;0.30;99.90
7317;DHT22;3699;51.462;6.696;2023-02-28T02:59:09;0.40;99.90
7317;DHT22;3699;51.462;6.696;2023-02-28T03:01:37;0.30;99.90
7317;DHT22;3699;51.462;6.696;2023-02-28T03:04:08;0.40;99.90
7317;DHT22;3699;51.462;6.696;2023-02-28T03:06:36;0.60;99.90
7317;DHT22;3699;51.462;6.696;2023-02-28T03:09:03;0.30;99.90
7317;DHT22;3699;51.462;6.696;2023-02-28T03:11:31;0.30;99.90
7317;DHT22;3699;51.462;6.696;2023-02-28T03:14:11;0.20;99.90
7317;DHT22;3699;51.462;6.696;2023-02-28T03:16:50;0.30;99.90
7317;DHT22;3699;51.462;6.696;2023-02-28T03:19:42;0.20;99.90
7317;DHT22;3699;51.462;6.696;2023-02-28T03:22:45;0.20;99.90
7317;DHT22;3699;51.462;6.696;2023-02-28T03:25:21;-0.10;99.90
7317;DHT22;3699;51.462;6.696;2023-02-28T03:27:55;0.20;99.90
7317;DHT22;3699;51.462;6.696;2023-02-28T03:30:27;0.20;99.90
7317;DHT22;3699;51.462;6.696;2023-02-28T03:32:58;0.30;99.90
7317;DHT22;3699;51.462;6.696;2023-02-28T03:35:30;0.20;99.90
7317;DHT22;3699;51.462;6.696;2023-02-28T03:38:03;0.20;99.90
7317;DHT22;3699;51.462;6.696;2023-02-28T03:40:33;0.20;99.90
7317;DHT22;3699;51.462;6.696;2023-02-28T03:43:04;0.20;99.90
7317;DHT22;3699;51.462;6.696;2023-02-28T03:45:36;0.30;99.90
7317;DHT22;3699;51.462;6.696;2023-02-28T03:48:08;0.70;99.90
7317;DHT22;3699;51.462;6.696;2023-02-28T03:50:38;0.20;99.90
7317;DHT22;3699;51.462;6.696;2023-02-28T03:53:11;0.40;99.90
7317;DHT22;3699;51.462;6.696;2023-02-28T03:55:42;0.40;99.90
7317;DHT22;3699;51.462;6.696;2023-02-28T03:58:16;0.50;99.90
7317;DHT22;3699;51.462;6.696;2023-02-28T04:00:47;0.30;99.90
7317;DHT22;3699;51.462;6.696;2023-02-28T04:03:15;0.50;99.90
7317;DHT22;3699;51.462;6.696;2023-02-28T04:05:50;0.50;99.90
7317;DHT22;3699;51.462;6.696;2023-02-28T04:08:19;0.50;99.90
7317;DHT22;3699;51.462;6.696;2023-02-28T04:10:51;0.30;99.90
7317;DHT22;3699;51.462;6.696;2023-02-28T04:13:19;0.40;99.90
7317;DHT22;3699;51.462;6.696;2023-02-28T04:15:46;0.40;99.90
7317;DHT22;3699;51.462;6.696;2023-02-28T04:18:13;0.40;99.90
7317;DHT22;3699;51.462;6.696;2023-02-28T04:20:39;0.60;99.90
7317;DHT22;3699;51.462;6.696;2023-02-28T04:23:06;0.20;99.90
7317;DHT22;3699;51.462;6.696;2023-02-28T04:25:34;0.40;99.90
7317;DHT22;3699;51.462;6.696;2023-02-28T04:28:01;0.50;99.90
7317;DHT22;3699;51.462;6.696;2023-02-28T04:30:27;0.50;99.90
7317;DHT22;3699;51.462;6.696;2023-02-28T04:35:22;0.30;99.90
7317;DHT22;3699;51.462;6.696;2023-02-28T04:40:16;0.30;99.90
7317;DHT22;3699;51.462;6.696;2023-02-28T04:42:44;0.30;99.90
7317;DHT22;3699;51.462;6.696;2023-02-28T04:45:11;0.20;99.90
7317;DHT22;3699;51.462;6.696;2023-02-28T04:47:37;0.50;99.90
7317;DHT22;3699;51.462;6.696;2023-02-28T04:50:05;0.40;99.90
7317;DHT22;3699;51.462;6.696;2023-02-28T04:52:31;0.40;99.90
7317;DHT22;3699;51.462;6.696;2023-02-28T04:54:58;0.10;99.90
7317;DHT22;3699;51.462;6.696;2023-02-28T04:57:25;0.40;99.90
7317;DHT22;3699;51.462;6.696;2023-02-28T04:59:53;0.40;99.90
7317;DHT22;3699;51.462;6.696;2023-02-28T05:02:20;0.30;99.90
7317;DHT22;3699;51.462;6.696;2023-02-28T05:07:13;0.30;99.90
7317;DHT22;3699;51.462;6.696;2023-02-28T05:09:40;0.20;99.90
7317;DHT22;3699;51.462;6.696;2023-02-28T05:12:08;0.20;99.90
7317;DHT22;3699;51.462;6.696;2023-02-28T05:14:35;0.30;99.90
7317;DHT22;3699;51.462;6.696;2023-02-28T05:17:03;0.30;99.90
7317;DHT22;3699;51.462;6.696;2023-02-28T05:19:30;0.30;99.90
7317;DHT22;3699;51.462;6.696;2023-02-28T05:24:24;0.30;99.90
7317;DHT22;3699;51.462;6.696;2023-02-28T05:26:53;0.20;99.90
7317;DHT22;3699;51.462;6.696;2023-02-28T05:29:20;0.20;99.90
7317;DHT22;3699;51.462;6.696;2023-02-28T05:31:46;0.00;99.90
7317;DHT22;3699;51.462;6.696;2023-02-28T05:34:15;0.10;99.90
7317;DHT22;3699;51.462;6.696;2023-02-28T05:39:09;0.10;99.90
7317;DHT22;3699;51.462;6.696;2023-02-28T05:41:39;0.20;99.90
7317;DHT22;3699;51.462;6.696;2023-02-28T05:44:06;0.40;99.90
7317;DHT22;3699;51.462;6.696;2023-02-28T05:51:28;0.00;99.90
7317;DHT22;3699;51.462;6.696;2023-02-28T05:53:59;-0.10;99.90
7317;DHT22;3699;51.462;6.696;2023-02-28T05:56:25;-0.10;99.90
7317;DHT22;3699;51.462;6.696;2023-02-28T05:58:52;0.00;99.90
7317;DHT22;3699;51.462;6.696;2023-02-28T06:01:21;0.00;99.90
7317;DHT22;3699;51.462;6.696;2023-02-28T06:03:48;-0.20;99.90
7317;DHT22;3699;51.462;6.696;2023-02-28T06:06:15;0.10;99.90
7317;DHT22;3699;51.462;6.696;2023-02-28T06:08:43;-0.10;99.90
7317;DHT22;3699;51.462;6.696;2023-02-28T06:11:11;-0.20;99.90
7317;DHT22;3699;51.462;6.696;2023-02-28T06:13:37;-0.20;99.90
7317;DHT22;3699;51.462;6.696;2023-02-28T06:16:05;-0.30;99.90
7317;DHT22;3699;51.462;6.696;2023-02-28T06:18:32;-0.20;99.90
7317;DHT22;3699;51.462;6.696;2023-02-28T06:20:59;-0.20;99.90
7317;DHT22;3699;51.462;6.696;2023-02-28T06:23:26;-0.20;99.90
7317;DHT22;3699;51.462;6.696;2023-02-28T06:25:54;0.00;99.90
7317;DHT22;3699;51.462;6.696;2023-02-28T06:28:23;-0.10;99.90
7317;DHT22;3699;51.462;6.696;2023-02-28T06:30:50;0.00;99.90
7317;DHT22;3699;51.462;6.696;2023-02-28T06:33:17;0.10;99.90
7317;DHT22;3699;51.462;6.696;2023-02-28T06:35:44;0.00;99.90
7317;DHT22;3699;51.462;6.696;2023-02-28T06:38:12;-0.10;99.90
7317;DHT22;3699;51.462;6.696;2023-02-28T06:40:39;-0.10;99.90
7317;DHT22;3699;51.462;6.696;2023-02-28T06:43:07;-0.10;99.90
7317;DHT22;3699;51.462;6.696;2023-02-28T06:45:33;0.00;99.90
7317;DHT22;3699;51.462;6.696;2023-02-28T06:48:00;0.10;99.90
7317;DHT22;3699;51.462;6.696;2023-02-28T06:50:27;0.10;99.90
7317;DHT22;3699;51.462;6.696;2023-02-28T06:52:55;0.00;99.90
7317;DHT22;3699;51.462;6.696;2023-02-28T06:57:48;0.10;99.90
7317;DHT22;3699;51.462;6.696;2023-02-28T07:00:18;0.00;99.90
7317;DHT22;3699;51.462;6.696;2023-02-28T07:02:45;0.00;99.90
7317;DHT22;3699;51.462;6.696;2023-02-28T07:10:10;0.20;99.90
7317;DHT22;3699;51.462;6.696;2023-02-28T07:12:38;0.30;99.90
7317;DHT22;3699;51.462;6.696;2023-02-28T07:15:05;0.60;99.90
7317;DHT22;3699;51.462;6.696;2023-02-28T07:17:34;1.00;99.90
7317;DHT22;3699;51.462;6.696;2023-02-28T07:22:29;1.50;99.90
7317;DHT22;3699;51.462;6.696;2023-02-28T07:24:56;2.00;99.90
7317;DHT22;3699;51.462;6.696;2023-02-28T07:27:23;2.50;99.90
7317;DHT22;3699;51.462;6.696;2023-02-28T07:29:51;2.90;99.90
7317;DHT22;3699;51.462;6.696;2023-02-28T07:32:18;3.10;98.00
7317;DHT22;3699;51.462;6.696;2023-02-28T07:34:46;3.80;92.20
7317;DHT22;3699;51.462;6.696;2023-02-28T07:37:14;4.10;88.60
7317;DHT22;3699;51.462;6.696;2023-02-28T07:39:40;4.50;80.40
7317;DHT22;3699;51.462;6.696;2023-02-28T07:42:08;4.60;66.30
7317;DHT22;3699;51.462;6.696;2023-02-28T07:44:37;4.80;67.60
7317;DHT22;3699;51.462;6.696;2023-02-28T07:47:06;4.90;64.10
7317;DHT22;3699;51.462;6.696;2023-02-28T07:49:33;4.80;64.30
7317;DHT22;3699;51.462;6.696;2023-02-28T07:52:01;4.90;59.80
7317;DHT22;3699;51.462;6.696;2023-02-28T07:54:29;5.00;61.10
7317;DHT22;3699;51.462;6.696;2023-02-28T07:56:55;5.30;56.90
7317;DHT22;3699;51.462;6.696;2023-02-28T07:59:22;5.60;55.50
7317;DHT22;3699;51.462;6.696;2023-02-28T08:01:49;5.80;55.00
7317;DHT22;3699;51.462;6.696;2023-02-28T08:04:16;6.00;53.70
7317;DHT22;3699;51.462;6.696;2023-02-28T08:06:42;5.70;52.00
7317;DHT22;3699;51.462;6.696;2023-02-28T08:09:10;6.10;52.10
7317;DHT22;3699;51.462;6.696;2023-02-28T08:11:37;6.40;48.30
7317;DHT22;3699;51.462;6.696;2023-02-28T08:14:04;6.40;48.40
7317;DHT22;3699;51.462;6.696;2023-02-28T08:16:31;6.60;46.60
7317;DHT22;3699;51.462;6.696;2023-02-28T08:18:57;6.30;46.20
7317;DHT22;3699;51.462;6.696;2023-02-28T08:21:24;6.30;46.50
7317;DHT22;3699;51.462;6.696;2023-02-28T08:23:51;6.30;46.90
7317;DHT22;3699;51.462;6.696;2023-02-28T08:26:20;6.20;47.30
7317;DHT22;3699;51.462;6.696;2023-02-28T08:28:46;5.90;46.00
7317;DHT22;3699;51.462;6.696;2023-02-28T08:31:15;5.70;45.30
7317;DHT22;3699;51.462;6.696;2023-02-28T08:33:42;5.70;45.60
7317;DHT22;3699;51.462;6.696;2023-02-28T08:36:10;5.20;45.70
7317;DHT22;3699;51.462;6.696;2023-02-28T08:38:38;5.20;46.60
7317;DHT22;3699;51.462;6.696;2023-02-28T08:41:06;5.00;47.00
7317;DHT22;3699;51.462;6.696;2023-02-28T08:43:35;4.90;49.10
7317;DHT22;3699;51.462;6.696;2023-02-28T08:46:03;5.00;49.80
7317;DHT22;3699;51.462;6.696;2023-02-28T08:48:32;4.90;49.40
7317;DHT22;3699;51.462;6.696;2023-02-28T08:51:00;4.90;49.50
7317;DHT22;3699;51.462;6.696;2023-02-28T08:53:27;4.90;47.00
7317;DHT22;3699;51.462;6.696;2023-02-28T08:55:58;5.00;48.00
7317;DHT22;3699;51.462;6.696;2023-02-28T08:58:24;5.10;47.40
7317;DHT22;3699;51.462;6.696;2023-02-28T09:00:53;5.10;44.80
7317;DHT22;3699;51.462;6.696;2023-02-28T09:03:21;5.20;43.90
7317;DHT22;3699;51.462;6.696;2023-02-28T09:05:55;5.10;42.80
7317;DHT22;3699;51.462;6.696;2023-02-28T09:08:23;5.30;44.30
7317;DHT22;3699;51.462;6.696;2023-02-28T09:10:49;5.50;41.00
7317;DHT22;3699;51.462;6.696;2023-02-28T09:13:16;5.50;41.20
7317;DHT22;3699;51.462;6.696;2023-02-28T09:15:43;5.50;40.90
7317;DHT22;3699;51.462;6.696;2023-02-28T09:18:11;5.50;40.00
7317;DHT22;3699;51.462;6.696;2023-02-28T09:20:38;5.70;40.30
7317;DHT22;3699;51.462;6.696;2023-02-28T09:23:06;5.80;38.90
7317;DHT22;3699;51.462;6.696;2023-02-28T09:25:33;5.80;38.10
7317;DHT22;3699;51.462;6.696;2023-02-28T09:27:59;5.70;34.90
7317;DHT22;3699;51.462;6.696;2023-02-28T09:30:26;5.70;35.50
7317;DHT22;3699;51.462;6.696;2023-02-28T09:32:53;5.70;35.30
7317;DHT22;3699;51.462;6.696;2023-02-28T09:35:22;5.70;34.50
7317;DHT22;3699;51.462;6.696;2023-02-28T09:37:50;5.70;32.20
7317;DHT22;3699;51.462;6.696;2023-02-28T09:40:18;5.60;31.20
7317;DHT22;3699;51.462;6.696;2023-02-28T09:42:47;5.70;31.30
7317;DHT22;3699;51.462;6.696;2023-02-28T09:45:22;5.80;32.40
7317;DHT22;3699;51.462;6.696;2023-02-28T09:47:50;5.80;31.30
7317;DHT22;3699;51.462;6.696;2023-02-28T09:50:28;5.80;31.50
7317;DHT22;3699;51.462;6.696;2023-02-28T09:52:56;5.90;31.50
7317;DHT22;3699;51.462;6.696;2023-02-28T09:55:29;6.10;31.20
7317;DHT22;3699;51.462;6.696;2023-02-28T09:57:57;6.10;29.80
7317;DHT22;3699;51.462;6.696;2023-02-28T10:00:30;6.10;29.10
7317;DHT22;3699;51.462;6.696;2023-02-28T10:03:14;6.20;28.90
7317;DHT22;3699;51.462;6.696;2023-02-28T10:05:53;6.20;28.90
7317;DHT22;3699;51.462;6.696;2023-02-28T10:08:26;6.30;29.20
7317;DHT22;3699;51.462;6.696;2023-02-28T10:10:55;6.30;29.50
7317;DHT22;3699;51.462;6.696;2023-02-28T10:13:27;6.40;28.20
7317;DHT22;3699;51.462;6.696;2023-02-28T10:15:58;6.40;28.40
7317;DHT22;3699;51.462;6.696;2023-02-28T10:18:30;6.40;28.30
7317;DHT22;3699;51.462;6.696;2023-02-28T10:21:01;6.30;28.10
7317;DHT22;3699;51.462;6.696;2023-02-28T10:23:33;6.30;27.80
7317;DHT22;3699;51.462;6.696;2023-02-28T10:26:09;6.30;27.70
7317;DHT22;3699;51.462;6.696;2023-02-28T10:28:38;6.40;27.20
7317;DHT22;3699;51.462;6.696;2023-02-28T10:31:05;6.30;27.10
7317;DHT22;3699;51.462;6.696;2023-02-28T10:33:35;6.40;26.90
7317;DHT22;3699;51.462;6.696;2023-02-28T10:36:04;6.30;28.00
7317;DHT22;3699;51.462;6.696;2023-02-28T10:38:34;6.30;27.50
7317;DHT22;3699;51.462;6.696;2023-02-28T10:41:06;6.20;26.60
7317;DHT22;3699;51.462;6.696;2023-02-28T10:43:35;6.20;26.20
7317;DHT22;3699;51.462;6.696;2023-02-28T10:46:05;6.20;27.00
7317;DHT22;3699;51.462;6.696;2023-02-28T10:48:42;6.20;26.50
7317;DHT22;3699;51.462;6.696;2023-02-28T10:51:12;6.10;27.20
7317;DHT22;3699;51.462;6.696;2023-02-28T10:53:47;6.10;27.40
7317;DHT22;3699;51.462;6.696;2023-02-28T10:56:17;6.20;27.40
7317;DHT22;3699;51.462;6.696;2023-02-28T10:58:51;6.00;26.70
7317;DHT22;3699;51.462;6.696;2023-02-28T11:01:20;6.00;27.20
7317;DHT22;3699;51.462;6.696;2023-02-28T11:03:48;5.90;27.10
7317;DHT22;3699;51.462;6.696;2023-02-28T11:06:19;6.00;27.70
7317;DHT22;3699;51.462;6.696;2023-02-28T11:08:49;6.00;27.80
7317;DHT22;3699;51.462;6.696;2023-02-28T11:11:17;5.90;27.90
7317;DHT22;3699;51.462;6.696;2023-02-28T11:13:46;6.00;27.90
7317;DHT22;3699;51.462;6.696;2023-02-28T11:16:14;6.00;28.10
7317;DHT22;3699;51.462;6.696;2023-02-28T11:18:44;5.90;27.70
7317;DHT22;3699;51.462;6.696;2023-02-28T11:21:20;5.60;27.70
7317;DHT22;3699;51.462;6.696;2023-02-28T11:23:49;5.60;28.10
7317;DHT22;3699;51.462;6.696;2023-02-28T11:26:36;5.70;28.40
7317;DHT22;3699;51.462;6.696;2023-02-28T11:29:10;5.90;28.70
7317;DHT22;3699;51.462;6.696;2023-02-28T11:31:37;5.90;28.10
7317;DHT22;3699;51.462;6.696;2023-02-28T11:34:23;6.10;28.00
7317;DHT22;3699;51.462;6.696;2023-02-28T11:36:53;6.40;28.10
7317;DHT22;3699;51.462;6.696;2023-02-28T11:39:20;6.40;26.80
7317;DHT22;3699;51.462;6.696;2023-02-28T11:41:58;6.40;27.90
7317;DHT22;3699;51.462;6.696;2023-02-28T11:44:39;6.50;27.00
7317;DHT22;3699;51.462;6.696;2023-02-28T11:47:13;6.60;27.80
7317;DHT22;3699;51.462;6.696;2023-02-28T11:49:57;6.70;26.10
7317;DHT22;3699;51.462;6.696;2023-02-28T11:52:36;6.60;26.60
7317;DHT22;3699;51.462;6.696;2023-02-28T11:55:15;6.50;26.40
7317;DHT22;3699;51.462;6.696;2023-02-28T11:58:04;6.20;25.70
7317;DHT22;3699;51.462;6.696;2023-02-28T12:00:54;6.00;25.90
7317;DHT22;3699;51.462;6.696;2023-02-28T12:03:30;6.00;26.80
7317;DHT22;3699;51.462;6.696;2023-02-28T12:06:05;5.80;26.50
7317;DHT22;3699;51.462;6.696;2023-02-28T12:08:47;5.70;26.60
7317;DHT22;3699;51.462;6.696;2023-02-28T12:11:25;5.70;26.90
7317;DHT22;3699;51.462;6.696;2023-02-28T12:14:06;5.80;27.60
7317;DHT22;3699;51.462;6.696;2023-02-28T12:16:53;5.90;28.10
7317;DHT22;3699;51.462;6.696;2023-02-28T12:19:22;6.00;28.40
7317;DHT22;3699;51.462;6.696;2023-02-28T12:22:11;6.10;27.80
7317;DHT22;3699;51.462;6.696;2023-02-28T12:24:59;6.30;28.90
7317;DHT22;3699;51.462;6.696;2023-02-28T12:27:32;6.40;27.70
7317;DHT22;3699;51.462;6.696;2023-02-28T12:30:03;6.50;27.10
7317;DHT22;3699;51.462;6.696;2023-02-28T12:32:35;6.50;27.00
7317;DHT22;3699;51.462;6.696;2023-02-28T12:35:10;6.50;27.00
7317;DHT22;3699;51.462;6.696;2023-02-28T12:37:41;6.50;26.70
7317;DHT22;3699;51.462;6.696;2023-02-28T12:40:16;6.50;27.00
7317;DHT22;3699;51.462;6.696;2023-02-28T12:42:46;6.50;26.70
7317;DHT22;3699;51.462;6.696;2023-02-28T12:45:18;6.50;26.30
7317;DHT22;3699;51.462;6.696;2023-02-28T12:47:49;6.40;26.50
7317;DHT22;3699;51.462;6.696;2023-02-28T12:50:17;6.50;26.80
7317;DHT22;3699;51.462;6.696;2023-02-28T12:52:51;6.50;27.10
7317;DHT22;3699;51.462;6.696;2023-02-28T12:55:25;6.50;26.40
7317;DHT22;3699;51.462;6.696;2023-02-28T12:57:59;6.40;26.90
7317;DHT22;3699;51.462;6.696;2023-02-28T13:00:33;6.40;27.10
7317;DHT22;3699;51.462;6.696;2023-02-28T13:06:14;6.50;26.80
7317;DHT22;3699;51.462;6.696;2023-02-28T13:09:01;6.60;27.20
7317;DHT22;3699;51.462;6.696;2023-02-28T13:11:32;6.60;26.70
7317;DHT22;3699;51.462;6.696;2023-02-28T13:14:01;6.60;27.50
7317;DHT22;3699;51.462;6.696;2023-02-28T13:16:29;6.70;27.60
7317;DHT22;3699;51.462;6.696;2023-02-28T13:19:17;6.80;27.70
7317;DHT22;3699;51.462;6.696;2023-02-28T13:21:44;6.90;27.20
7317;DHT22;3699;51.462;6.696;2023-02-28T13:24:42;6.90;27.30
7317;DHT22;3699;51.462;6.696;2023-02-28T13:27:23;6.80;27.20
7317;DHT22;3699;51.462;6.696;2023-02-28T13:29:52;6.80;28.00
7317;DHT22;3699;51.462;6.696;2023-02-28T13:32:34;6.90;28.50
7317;DHT22;3699;51.462;6.696;2023-02-28T13:38:12;6.90;28.20
7317;DHT22;3699;51.462;6.696;2023-02-28T13:40:41;6.80;27.90
7317;DHT22;3699;51.462;6.696;2023-02-28T13:43:09;6.80;28.30
7317;DHT22;3699;51.462;6.696;2023-02-28T13:45:36;6.80;28.80
7317;DHT22;3699;51.462;6.696;2023-02-28T13:48:15;6.80;28.40
7317;DHT22;3699;51.462;6.696;2023-02-28T13:50:43;6.80;28.10
7317;DHT22;3699;51.462;6.696;2023-02-28T13:53:36;6.80;28.30
7317;DHT22;3699;51.462;6.696;2023-02-28T13:56:18;6.70;28.60
7317;DHT22;3699;51.462;6.696;2023-02-28T13:58:53;6.70;28.20
7317;DHT22;3699;51.462;6.696;2023-02-28T14:04:59;6.70;28.80
7317;DHT22;3699;51.462;6.696;2023-02-28T14:07:30;6.70;29.00
7317;DHT22;3699;51.462;6.696;2023-02-28T14:10:02;6.70;29.20
7317;DHT22;3699;51.462;6.696;2023-02-28T14:12:51;6.70;29.80
7317;DHT22;3699;51.462;6.696;2023-02-28T14:15:50;6.70;29.80
7317;DHT22;3699;51.462;6.696;2023-02-28T14:18:27;6.80;30.00
7317;DHT22;3699;51.462;6.696;2023-02-28T14:20:59;6.80;29.70
7317;DHT22;3699;51.462;6.696;2023-02-28T14:29:39;6.80;31.30
7317;DHT22;3699;51.462;6.696;2023-02-28T14:32:15;6.80;31.50
7317;DHT22;3699;51.462;6.696;2023-02-28T14:34:51;6.80;31.40
7317;DHT22;3699;51.462;6.696;2023-02-28T14:37:23;6.80;32.20
7317;DHT22;3699;51.462;6.696;2023-02-28T14:39:53;6.80;31.60
7317;DHT22;3699;51.462;6.696;2023-02-28T14:42:31;6.90;31.40
7317;DHT22;3699;51.462;6.696;2023-02-28T14:44:58;6.90;30.50
7317;DHT22;3699;51.462;6.696;2023-02-28T14:47:30;6.90;30.70
7317;DHT22;3699;51.462;6.696;2023-02-28T14:49:58;6.80;30.90
7317;DHT22;3699;51.462;6.696;2023-02-28T14:52:27;6.70;31.50
7317;DHT22;3699;51.462;6.696;2023-02-28T14:54:57;6.70;31.00
7317;DHT22;3699;51.462;6.696;2023-02-28T14:57:27;6.70;31.50
7317;DHT22;3699;51.462;6.696;2023-02-28T15:00:04;6.70;32.00
7317;DHT22;3699;51.462;6.696;2023-02-28T15:02:38;6.70;32.10
7317;DHT22;3699;51.462;6.696;2023-02-28T15:05:20;6.60;32.10
7317;DHT22;3699;51.462;6.696;2023-02-28T15:08:02;6.50;31.20
7317;DHT22;3699;51.462;6.696;2023-02-28T15:10:29;6.50;31.40
7317;DHT22;3699;51.462;6.696;2023-02-28T15:12:57;6.40;31.50
7317;DHT22;3699;51.462;6.696;2023-02-28T15:15:27;6.40;30.40
7317;DHT22;3699;51.462;6.696;2023-02-28T15:17:58;6.30;31.30
7317;DHT22;3699;51.462;6.696;2023-02-28T15:20:25;6.40;31.60
7317;DHT22;3699;51.462;6.696;2023-02-28T15:22:54;6.40;31.10
7317;DHT22;3699;51.462;6.696;2023-02-28T15:25:22;6.40;32.40
7317;DHT22;3699;51.462;6.696;2023-02-28T15:27:51;6.40;33.50
7317;DHT22;3699;51.462;6.696;2023-02-28T15:30:19;6.40;34.20
7317;DHT22;3699;51.462;6.696;2023-02-28T15:35:40;6.30;33.70
7317;DHT22;3699;51.462;6.696;2023-02-28T15:38:15;6.40;34.70
7317;DHT22;3699;51.462;6.696;2023-02-28T15:40:45;6.20;34.80
7317;DHT22;3699;51.462;6.696;2023-02-28T15:43:23;6.20;34.60
7317;DHT22;3699;51.462;6.696;2023-02-28T15:45:51;6.20;34.20
7317;DHT22;3699;51.462;6.696;2023-02-28T15:48:21;6.20;34.80
7317;DHT22;3699;51.462;6.696;2023-02-28T15:50:52;6.10;35.00
7317;DHT22;3699;51.462;6.696;2023-02-28T15:53:22;6.10;35.40
7317;DHT22;3699;51.462;6.696;2023-02-28T15:55:56;6.30;41.60
7317;DHT22;3699;51.462;6.696;2023-02-28T15:58:24;6.30;37.30
7317;DHT22;3699;51.462;6.696;2023-02-28T16:01:06;6.30;35.70
7317;DHT22;3699;51.462;6.696;2023-02-28T16:03:39;6.20;35.70
7317;DHT22;3699;51.462;6.696;2023-02-28T16:06:23;6.20;35.20
7317;DHT22;3699;51.462;6.696;2023-02-28T16:08:51;6.20;35.60
7317;DHT22;3699;51.462;6.696;2023-02-28T16:11:18;6.10;34.00
7317;DHT22;3699;51.462;6.696;2023-02-28T16:16:48;6.00;34.20
7317;DHT22;3699;51.462;6.696;2023-02-28T16:19:15;6.00;35.50
7317;DHT22;3699;51.462;6.696;2023-02-28T16:21:43;6.00;35.70
7317;DHT22;3699;51.462;6.696;2023-02-28T16:24:10;5.90;35.60
7317;DHT22;3699;51.462;6.696;2023-02-28T16:26:38;5.90;36.10
7317;DHT22;3699;51.462;6.696;2023-02-28T16:29:06;5.80;36.50
7317;DHT22;3699;51.462;6.696;2023-02-28T16:31:36;5.80;37.00
7317;DHT22;3699;51.462;6.696;2023-02-28T16:34:04;5.70;36.60
7317;DHT22;3699;51.462;6.696;2023-02-28T16:36:31;5.70;37.50
7317;DHT22;3699;51.462;6.696;2023-02-28T16:38:59;5.70;37.40
7317;DHT22;3699;51.462;6.696;2023-02-28T16:41:28;5.60;37.90
7317;DHT22;3699;51.462;6.696;2023-02-28T16:43:56;5.60;38.20
7317;DHT22;3699;51.462;6.696;2023-02-28T16:46:29;5.60;38.60
7317;DHT22;3699;51.462;6.696;2023-02-28T16:48:56;5.50;38.60
7317;DHT22;3699;51.462;6.696;2023-02-28T16:51:23;5.50;38.40
7317;DHT22;3699;51.462;6.696;2023-02-28T16:53:49;5.40;38.40
7317;DHT22;3699;51.462;6.696;2023-02-28T16:56:19;5.40;38.80
7317;DHT22;3699;51.462;6.696;2023-02-28T16:58:47;5.40;39.00
7317;DHT22;3699;51.462;6.696;2023-02-28T17:01:14;5.40;39.70
7317;DHT22;3699;51.462;6.696;2023-02-28T17:03:42;5.30;39.40
7317;DHT22;3699;51.462;6.696;2023-02-28T17:06:17;5.30;39.20
7317;DHT22;3699;51.462;6.696;2023-02-28T17:08:44;5.30;39.50
7317;DHT22;3699;51.462;6.696;2023-02-28T17:11:11;5.20;39.90
7317;DHT22;3699;51.462;6.696;2023-02-28T17:13:39;5.10;40.30
7317;DHT22;3699;51.462;6.696;2023-02-28T17:16:11;5.10;40.80
7317;DHT22;3699;51.462;6.696;2023-02-28T17:18:40;5.00;40.90
7317;DHT22;3699;51.462;6.696;2023-02-28T17:21:12;5.00;41.60
7317;DHT22;3699;51.462;6.696;2023-02-28T17:23:39;5.00;42.00
7317;DHT22;3699;51.462;6.696;2023-02-28T17:26:06;5.00;42.60
7317;DHT22;3699;51.462;6.696;2023-02-28T17:28:33;4.90;42.70
7317;DHT22;3699;51.462;6.696;2023-02-28T17:31:01;4.90;43.40
7317;DHT22;3699;51.462;6.696;2023-02-28T17:33:27;4.90;43.70
7317;DHT22;3699;51.462;6.696;2023-02-28T17:35:54;4.90;43.70